Time;durP1;ratioP1;P1;durP2;ratioP2;P2;SDS_P1;SDS_P2;PMS_P1;PMS_P2;Temp;Humidity;BMP_temperature;BMP_pressure;BME280_temperature;BME280_humidity;BME280_pressure;Samples;Min_cycle;Max_cycle;Signal;HPM_P1;HPM_P2
2021/01/23 00:01:33;;;;;;;;;;;;;;;1.44;100.00;96956.88;5113629;28;19927;-81
2021/01/23 00:04:00;;;;;;;;;;;;;;;1.35;100.00;96957.41;5113488;28;20367;-81
2021/01/23 00:06:26;;;;;;;;;;;;;;;1.34;100.00;96955.84;5113373;28;19989;-81
2021/01/23 00:08:53;;;;;;;;;;;;;;;1.29;100.00;96961.81;5113332;28;19928;-81
2021/01/23 00:11:19;;;;;;;;;;;;;;;1.29;100.00;96963.78;5113194;28;20466;-81
2021/01/23 00:13:46;;;;;;;;;;;;;;;1.29;100.00;96967.31;5096345;28;19973;-81
2021/01/23 00:16:12;;;;;;;;;;;;;;;1.24;100.00;96967.75;5114531;28;19924;-81
2021/01/23 00:18:39;;;;;;;;;;;;;;;1.25;100.00;96979.56;5096291;28;19924;-81
2021/01/23 00:21:06;;;;;;;;;;;;;;;1.36;100.00;96986.47;5113491;28;19931;-81
2021/01/23 00:23:33;;;;;;;;;;;;;;;1.41;100.00;96983.25;5056080;28;19925;-81
2021/01/23 00:25:59;;;;;;;;;;;;;;;1.58;100.00;96993.25;5072684;28;19924;-81
2021/01/23 00:28:26;;;;;;;;;;;;;;;1.59;100.00;96994.81;5072722;28;19924;-81
2021/01/23 00:30:52;;;;;;;;;;;;;;;1.57;100.00;96997.22;5072818;28;19924;-81
2021/01/23 00:33:19;;;;;;;;;;;;;;;1.62;100.00;96993.97;5073900;28;19970;-82
2021/01/23 00:35:45;;;;;;;;;;;;;;;1.59;100.00;97451.75;5072512;28;19925;-82
2021/01/23 00:38:12;;;;;;;;;;;;;;;1.68;100.00;97647.56;5055950;28;19931;-82
2021/01/23 00:40:38;;;;;;;;;;;;;;;1.74;100.00;97642.44;5072453;28;19924;-81
2021/01/23 00:43:05;;;;;;;;;;;;;;;1.75;100.00;97644.78;5073621;28;19936;-81
2021/01/23 00:45:32;;;;;;;;;;;;;;;1.73;100.00;97647.16;5073902;28;19924;-81
2021/01/23 00:48:06;;;;;;;;;;;;;;;1.78;100.00;97646.75;5073563;28;19948;-81
2021/01/23 00:50:33;;;;;;;;;;;;;;;1.69;100.00;97635.38;5072509;28;19929;-81
2021/01/23 00:52:59;;;;;;;;;;;;;;;1.66;100.00;97630.66;5074428;28;20344;-81
2021/01/23 00:55:27;;;;;;;;;;;;;;;1.53;100.00;97634.25;5077597;28;19947;-81
2021/01/23 00:57:54;;;;;;;;;;;;;;;1.58;100.00;97631.88;5076888;28;19951;-81
2021/01/23 01:00:21;;;;;;;;;;;;;;;1.60;100.00;97629.50;5026394;28;20355;-81
2021/01/23 01:02:48;;;;;;;;;;;;;;;1.62;100.00;97629.13;5059470;28;19925;-81
2021/01/23 01:05:29;;;;;;;;;;;;;;;1.58;100.00;97626.38;5076190;28;20023;-81
2021/01/23 01:07:55;;;;;;;;;;;;;;;1.60;100.00;97635.00;5076968;28;19924;-81
2021/01/23 01:10:22;;;;;;;;;;;;;;;1.59;100.00;97630.69;5077032;28;19931;-81
2021/01/23 01:12:49;;;;;;;;;;;;;;;1.66;100.00;97632.63;5075899;28;19924;-81
2021/01/23 01:15:15;;;;;;;;;;;;;;;1.60;100.00;97640.53;5075775;28;19931;-81
2021/01/23 01:17:43;;;;;;;;;;;;;;;1.64;100.00;97644.03;5059206;28;19931;-80
2021/01/23 01:20:10;;;;;;;;;;;;;;;1.50;100.00;97649.59;5076631;28;19970;-81
2021/01/23 01:22:37;;;;;;;;;;;;;;;1.43;100.00;97646.88;5067062;28;19924;-80
2021/01/23 01:25:04;;;;;;;;;;;;;;;1.37;100.00;97642.94;5116203;28;19959;-80
2021/01/23 01:27:30;;;;;;;;;;;;;;;1.27;100.00;97634.72;5117251;28;19989;-80
2021/01/23 01:29:57;;;;;;;;;;;;;;;1.23;100.00;97640.22;5117042;27;19923;-81
2021/01/23 01:32:23;;;;;;;;;;;;;;;1.24;100.00;97644.53;5117099;28;19980;-81
2021/01/23 01:34:50;;;;;;;;;;;;;;;1.31;100.00;97647.28;5099066;28;19923;-80
2021/01/23 01:37:17;;;;;;;;;;;;;;;1.31;100.00;97663.00;5115705;28;19924;-81
2021/01/23 01:39:43;;;;;;;;;;;;;;;1.34;100.00;97663.00;5115787;28;19924;-81
2021/01/23 01:42:10;;;;;;;;;;;;;;;1.42;100.00;97672.78;5116807;28;20012;-81
2021/01/23 01:44:36;;;;;;;;;;;;;;;1.47;100.00;97675.16;5098601;28;20383;-81
2021/01/23 01:47:03;;;;;;;;;;;;;;;1.45;100.00;97671.22;5116792;28;20004;-81
2021/01/23 01:49:30;;;;;;;;;;;;;;;1.48;100.00;97687.75;5115757;28;19924;-81
2021/01/23 01:51:57;;;;;;;;;;;;;;;1.60;100.00;97684.56;5115448;28;19924;-81
2021/01/23 01:54:24;;;;;;;;;;;;;;;1.60;100.00;97692.03;5116575;28;19927;-81
2021/01/23 01:56:51;;;;;;;;;;;;;;;1.45;100.00;97672.00;5116567;28;20012;-81
2021/01/23 01:59:17;;;;;;;;;;;;;;;1.44;100.00;97675.16;5115267;28;19924;-81
2021/01/23 02:01:44;;;;;;;;;;;;;;;1.36;100.00;97674.38;5116394;28;19928;-81
2021/01/23 02:04:29;;;;;;;;;;;;;;;1.45;100.00;97677.50;5115556;27;20446;-81
2021/01/23 02:07:09;;;;;;;;;;;;;;;1.68;100.00;97686.09;5116411;28;19928;-81
2021/01/23 02:09:36;;;;;;;;;;;;;;;1.69;100.00;97686.91;5115060;28;19931;-81
2021/01/23 02:12:20;;;;;;;;;;;;;;;1.71;100.00;97682.56;5116063;28;19930;-81
2021/01/23 02:14:59;;;;;;;;;;;;;;;1.68;100.00;97680.59;5116116;28;19923;-81
2021/01/23 02:17:36;;;;;;;;;;;;;;;1.67;100.00;97679.03;5097905;28;19931;-81
2021/01/23 02:20:02;;;;;;;;;;;;;;;1.68;100.00;97674.31;5097781;28;19969;-80
2021/01/23 02:22:42;;;;;;;;;;;;;;;1.68;100.00;97669.56;5115790;28;19924;-81
2021/01/23 02:25:10;;;;;;;;;;;;;;;1.60;100.00;97665.31;5114925;28;20307;-80
2021/01/23 02:27:40;;;;;;;;;;;;;;;1.64;100.00;97660.56;5114665;28;19923;-81
2021/01/23 02:30:25;;;;;;;;;;;;;;;1.69;100.00;97656.59;5114568;28;19930;-81
2021/01/23 02:32:53;;;;;;;;;;;;;;;1.64;100.00;97657.81;5097922;28;19924;-79
2021/01/23 02:35:23;;;;;;;;;;;;;;;1.66;100.00;97644.44;5115852;28;20431;-80
2021/01/23 02:37:50;;;;;;;;;;;;;;;1.63;100.00;97648.00;5115384;28;20030;-80
2021/01/23 02:40:17;;;;;;;;;;;;;;;1.61;100.00;97650.34;5114252;28;19924;-80
2021/01/23 02:42:43;;;;;;;;;;;;;;;1.60;100.00;97648.78;5097382;28;20351;-80
2021/01/23 02:45:11;;;;;;;;;;;;;;;1.61;100.00;97653.09;5115490;28;19924;-80
2021/01/23 02:47:37;;;;;;;;;;;;;;;1.58;100.00;97648.38;5115474;28;19943;-80
2021/01/23 02:50:05;;;;;;;;;;;;;;;1.57;100.00;97646.81;5114166;28;19934;-81
2021/01/23 02:52:46;;;;;;;;;;;;;;;1.47;100.00;97641.34;5114057;28;19924;-80
2021/01/23 02:55:15;;;;;;;;;;;;;;;1.42;100.00;97637.00;5114342;28;20421;-80
2021/01/23 02:57:47;;;;;;;;;;;;;;;1.30;100.00;97642.19;5114226;28;19924;-81
2021/01/23 03:00:19;;;;;;;;;;;;;;;1.20;100.00;97642.97;5115460;28;19957;-80
2021/01/23 03:02:49;;;;;;;;;;;;;;;1.26;100.00;97647.69;5114193;28;19973;-81
2021/01/23 03:05:18;;;;;;;;;;;;;;;1.28;100.00;97658.28;5115500;28;19928;-80
2021/01/23 03:07:45;;;;;;;;;;;;;;;1.24;100.00;97655.53;5113922;28;19963;-81
2021/01/23 03:10:12;;;;;;;;;;;;;;;1.18;100.00;97653.59;5113735;28;19924;-81
2021/01/23 03:12:38;;;;;;;;;;;;;;;1.18;100.00;97659.88;5114892;28;19977;-80
2021/01/23 03:15:05;;;;;;;;;;;;;;;1.18;100.00;97661.84;5113719;28;19934;-80
2021/01/23 03:17:32;;;;;;;;;;;;;;;1.18;100.00;97654.38;5114978;28;19924;-81
2021/01/23 03:19:58;;;;;;;;;;;;;;;1.28;100.00;97667.34;5113617;28;19923;-80
2021/01/23 03:22:25;;;;;;;;;;;;;;;1.28;100.00;97667.34;5114636;28;19924;-80
2021/01/23 03:24:52;;;;;;;;;;;;;;;1.24;100.00;97672.03;5113702;28;19923;-80
2021/01/23 03:27:18;;;;;;;;;;;;;;;1.26;100.00;97669.69;5114629;28;20280;-80
2021/01/23 03:29:45;;;;;;;;;;;;;;;1.24;100.00;97674.03;5114783;28;19955;-80
2021/01/23 03:32:11;;;;;;;;;;;;;;;1.22;100.00;97666.16;5114631;28;20019;-80
2021/01/23 03:34:38;;;;;;;;;;;;;;;1.17;100.00;97663.81;5114673;28;19931;-80
2021/01/23 03:37:05;;;;;;;;;;;;;;;1.07;100.00;97661.88;5114400;28;19935;-80
2021/01/23 03:39:31;;;;;;;;;;;;;;;1.16;100.00;97667.75;5114577;28;19924;-80
2021/01/23 03:41:58;;;;;;;;;;;;;;;1.08;100.00;97666.19;5113111;28;19924;-80
2021/01/23 03:44:25;;;;;;;;;;;;;;;1.07;100.00;97656.38;5114402;28;19924;-80
2021/01/23 03:46:52;;;;;;;;;;;;;;;1.09;100.00;97653.22;5096375;28;19931;-80
2021/01/23 03:49:18;;;;;;;;;;;;;;;1.08;100.00;97646.94;5113283;28;19924;-81
2021/01/23 03:51:45;;;;;;;;;;;;;;;1.19;100.00;97661.47;5113163;28;19931;-81
2021/01/23 03:54:12;;;;;;;;;;;;;;;1.11;100.00;97640.63;5114334;28;20014;-78
2021/01/23 03:56:38;;;;;;;;;;;;;;;1.01;100.00;97646.16;5113132;28;19924;-81
2021/01/23 03:59:05;;;;;;;;;;;;;;;0.97;100.00;97645.38;5096338;28;20394;-80
2021/01/23 04:01:32;;;;;;;;;;;;;;;0.87;100.00;97643.41;5114390;28;19977;-81
2021/01/23 04:03:58;;;;;;;;;;;;;;;0.84;100.00;97642.25;5113238;28;19977;-80
2021/01/23 04:06:25;;;;;;;;;;;;;;;0.88;100.00;97647.75;5113123;28;19969;-81
2021/01/23 04:08:52;;;;;;;;;;;;;;;0.88;100.00;97648.50;5114336;28;19924;-80
2021/01/23 04:11:18;;;;;;;;;;;;;;;0.88;100.00;97654.00;5114100;28;19977;-81
2021/01/23 04:13:45;;;;;;;;;;;;;;;0.96;100.00;97654.78;5114263;28;19924;-81
2021/01/23 04:16:11;;;;;;;;;;;;;;;0.99;100.00;97668.53;5114239;28;19924;-81
2021/01/23 04:18:38;;;;;;;;;;;;;;;1.05;100.00;97675.22;5112990;28;19931;-81
2021/01/23 04:21:05;;;;;;;;;;;;;;;1.03;100.00;97676.81;5114136;28;19928;-80
2021/01/23 04:23:33;;;;;;;;;;;;;;;1.12;100.00;97669.69;5112982;28;20001;-80
2021/01/23 04:26:00;;;;;;;;;;;;;;;1.16;100.00;97681.50;5112827;28;19923;-81
2021/01/23 04:28:27;;;;;;;;;;;;;;;1.20;100.00;97687.00;5115865;28;19924;-81
2021/01/23 04:30:53;;;;;;;;;;;;;;;1.20;100.00;97671.28;5118293;28;19923;-81
2021/01/23 04:33:20;;;;;;;;;;;;;;;1.16;100.00;97676.00;5116851;28;19924;-81
2021/01/23 04:35:46;;;;;;;;;;;;;;;1.18;100.00;97673.63;5099797;28;19927;-81
2021/01/23 04:38:13;;;;;;;;;;;;;;;1.23;100.00;97675.97;5116763;28;20020;-81
2021/01/23 04:40:40;;;;;;;;;;;;;;;1.24;100.00;97683.06;5116796;28;19930;-81
2021/01/23 04:43:08;;;;;;;;;;;;;;;1.26;100.00;97683.44;5118107;28;19924;-81
2021/01/23 04:45:35;;;;;;;;;;;;;;;1.20;100.00;97675.97;5118007;28;19924;-81
2021/01/23 04:48:01;;;;;;;;;;;;;;;1.25;100.00;97692.91;5116598;28;19969;-81
2021/01/23 04:50:29;;;;;;;;;;;;;;;1.30;100.00;97702.72;5117866;28;19924;-80
2021/01/23 04:52:56;;;;;;;;;;;;;;;1.28;100.00;97703.09;5117603;28;20294;-81
2021/01/23 04:55:22;;;;;;;;;;;;;;;1.28;100.00;97702.31;5117777;28;19924;-81
2021/01/23 04:57:49;;;;;;;;;;;;;;;1.34;100.00;97715.28;5117657;28;19923;-81
2021/01/23 05:00:16;;;;;;;;;;;;;;;1.30;100.00;97708.97;5116360;28;20056;-80
2021/01/23 05:02:42;;;;;;;;;;;;;;;1.28;100.00;97705.88;5117568;28;19966;-81
2021/01/23 05:05:09;;;;;;;;;;;;;;;1.30;100.00;97720.00;5116326;28;20404;-80
2021/01/23 05:07:40;;;;;;;;;;;;;;;1.12;100.00;97705.47;5117116;28;19923;-80
2021/01/23 05:10:17;;;;;;;;;;;;;;;1.10;100.00;97710.59;5117655;28;19969;-79
2021/01/23 05:12:45;;;;;;;;;;;;;;;1.07;100.00;97714.13;5116121;28;20378;-80
2021/01/23 05:15:18;;;;;;;;;;;;;;;1.09;100.00;97720.00;5117308;28;19931;-80
2021/01/23 05:17:47;;;;;;;;;;;;;;;1.11;100.00;97717.66;5117150;28;19992;-80
2021/01/23 05:20:28;;;;;;;;;;;;;;;1.16;100.00;97721.97;5117048;28;19931;-81
2021/01/23 05:22:55;;;;;;;;;;;;;;;1.13;100.00;97726.31;5116350;28;19931;-80
2021/01/23 05:25:29;;;;;;;;;;;;;;;1.23;100.00;97731.00;5118282;28;19924;-80
2021/01/23 05:27:57;;;;;;;;;;;;;;;1.24;100.00;97727.06;5122772;28;19974;-81
2021/01/23 05:30:24;;;;;;;;;;;;;;;1.20;100.00;97728.25;5121727;28;19927;-81
2021/01/23 05:33:03;;;;;;;;;;;;;;;1.17;100.00;97737.28;5121290;28;19930;-80
2021/01/23 05:35:30;;;;;;;;;;;;;;;1.14;100.00;97740.84;5122553;28;19930;-80
2021/01/23 05:37:57;;;;;;;;;;;;;;;1.11;100.00;97739.66;5121513;28;19987;-80
2021/01/23 05:40:32;;;;;;;;;;;;;;;1.11;100.00;97744.38;5121912;28;20500;-80
2021/01/23 05:42:59;;;;;;;;;;;;;;;1.12;100.00;97751.47;5116955;28;19977;-81
2021/01/23 05:45:26;;;;;;;;;;;;;;;1.10;100.00;97757.34;5098939;28;19924;-81
2021/01/23 05:47:53;;;;;;;;;;;;;;;1.09;100.00;97747.50;5116411;28;19923;-81
2021/01/23 05:50:20;;;;;;;;;;;;;;;1.05;100.00;97756.94;5116502;28;20018;-81
2021/01/23 05:52:47;;;;;;;;;;;;;;;1.09;100.00;97758.53;5116456;28;19931;-80
2021/01/23 05:55:13;;;;;;;;;;;;;;;1.06;100.00;97759.31;5116557;28;19924;-80
2021/01/23 05:57:41;;;;;;;;;;;;;;;1.03;100.00;97757.34;5115430;28;19931;-80
2021/01/23 06:00:08;;;;;;;;;;;;;;;0.91;100.00;97762.44;5098311;28;19992;-80
2021/01/23 06:02:35;;;;;;;;;;;;;;;0.85;100.00;97764.03;5115308;28;19993;-80
2021/01/23 06:05:02;;;;;;;;;;;;;;;0.84;100.00;97765.19;5116446;28;19924;-80
2021/01/23 06:07:41;;;;;;;;;;;;;;;0.70;100.00;97763.19;5116212;28;20279;-80
2021/01/23 06:10:23;;;;;;;;;;;;;;;0.65;100.00;97766.31;5115302;28;19950;-80
2021/01/23 06:12:50;;;;;;;;;;;;;;;0.63;100.00;97771.44;5116508;28;20332;-80
2021/01/23 06:15:33;;;;;;;;;;;;;;;0.63;100.00;97778.88;5115208;28;19924;-80
2021/01/23 06:18:00;;;;;;;;;;;;;;;0.63;100.00;97784.38;5116045;28;19969;-80
2021/01/23 06:20:39;;;;;;;;;;;;;;;0.63;100.00;97779.69;5114849;28;19924;-80
2021/01/23 06:23:13;;;;;;;;;;;;;;;0.59;100.00;97784.38;5116039;28;20007;-80
2021/01/23 06:25:49;;;;;;;;;;;;;;;0.63;100.00;97793.44;5115141;28;19969;-80
2021/01/23 06:28:21;;;;;;;;;;;;;;;0.63;100.00;97790.69;5116128;28;19928;-79
2021/01/23 06:30:48;;;;;;;;;;;;;;;0.62;100.00;97793.81;5116124;28;20275;-80
2021/01/23 06:33:21;;;;;;;;;;;;;;;0.58;100.00;97790.25;5114835;28;20359;-80
2021/01/23 06:36:08;;;;;;;;;;;;;;;0.56;100.00;97796.13;5114614;28;20014;-80
2021/01/23 06:38:34;;;;;;;;;;;;;;;0.55;100.00;97805.56;5101945;28;20025;-80
2021/01/23 06:41:19;;;;;;;;;;;;;;;0.49;100.00;97807.13;5115804;28;19924;-80
2021/01/23 06:44:05;;;;;;;;;;;;;;;0.49;100.00;97811.81;5115625;28;20382;-80
2021/01/23 06:46:32;;;;;;;;;;;;;;;0.42;100.00;97812.59;5081131;28;19992;-80
2021/01/23 06:49:03;;;;;;;;;;;;;;;0.41;100.00;97821.22;5115383;28;20328;-80
2021/01/23 06:51:30;;;;;;;;;;;;;;;0.42;100.00;97818.09;5114186;28;19943;-80
2021/01/23 06:54:12;;;;;;;;;;;;;;;0.49;100.00;97831.84;5114426;28;20283;-80
2021/01/23 06:56:57;;;;;;;;;;;;;;;0.56;100.00;97829.13;5115700;28;20378;-81
2021/01/23 06:59:24;;;;;;;;;;;;;;;0.59;100.00;97849.56;5097421;28;19947;-81
2021/01/23 07:01:59;;;;;;;;;;;;;;;0.59;100.00;97844.84;5115560;28;19927;-80
2021/01/23 07:04:48;;;;;;;;;;;;;;;0.58;100.00;97859.75;5114151;28;19930;-80
2021/01/23 07:07:16;;;;;;;;;;;;;;;0.54;100.00;97858.16;5105031;28;19981;-80
2021/01/23 07:09:49;;;;;;;;;;;;;;;0.58;100.00;97870.75;5115320;27;19923;-80
2021/01/23 07:12:35;;;;;;;;;;;;;;;0.63;100.00;97884.13;5114975;28;20004;-81
2021/01/23 07:15:03;;;;;;;;;;;;;;;0.69;100.00;97890.84;5115382;28;19924;-81
2021/01/23 07:17:33;;;;;;;;;;;;;;;0.74;100.00;97900.66;5096972;28;19923;-81
2021/01/23 07:20:01;;;;;;;;;;;;;;;0.81;100.00;97901.47;5115145;28;20050;-80
2021/01/23 07:22:29;;;;;;;;;;;;;;;0.80;100.00;97905.41;5114857;28;19924;-80
2021/01/23 07:24:57;;;;;;;;;;;;;;;0.80;100.00;97910.91;5115106;28;19962;-80
2021/01/23 07:27:25;;;;;;;;;;;;;;;0.83;100.00;97910.16;5113711;28;19981;-80
2021/01/23 07:29:52;;;;;;;;;;;;;;;0.87;100.00;97915.63;5115112;28;19923;-80
2021/01/23 07:32:18;;;;;;;;;;;;;;;0.95;100.00;97914.50;5113483;28;19924;-80
2021/01/23 07:34:55;;;;;;;;;;;;;;;0.91;100.00;97911.72;5113521;28;19928;-78
2021/01/23 07:37:45;;;;;;;;;;;;;;;0.93;100.00;97905.84;5114760;28;20030;-80
2021/01/23 07:40:22;;;;;;;;;;;;;;;0.99;100.00;97902.34;5104226;28;20378;-80
2021/01/23 07:42:52;;;;;;;;;;;;;;;0.96;100.00;97903.09;5114367;28;20027;-79
2021/01/23 07:45:20;;;;;;;;;;;;;;;0.95;100.00;97909.78;5114517;28;19924;-80
2021/01/23 07:47:56;;;;;;;;;;;;;;;0.90;100.00;97903.84;5112866;28;19928;-80
2021/01/23 07:50:23;;;;;;;;;;;;;;;0.86;100.00;97898.38;5113076;28;19924;-80
2021/01/23 07:52:50;;;;;;;;;;;;;;;0.87;100.00;97894.44;5114414;28;19930;-80
2021/01/23 07:55:17;;;;;;;;;;;;;;;0.69;100.00;97881.78;5113825;28;19973;-80
2021/01/23 07:58:03;;;;;;;;;;;;;;;0.71;100.00;97885.72;5113739;28;19931;-80
2021/01/23 08:00:30;;;;;;;;;;;;;;;0.71;100.00;97888.47;5114259;28;19924;-80
2021/01/23 08:02:58;;;;;;;;;;;;;;;0.79;100.00;97897.56;5116376;28;19976;-80
2021/01/23 08:05:43;;;;;;;;;;;;;;;0.85;100.00;97907.78;5118563;28;20357;-80
2021/01/23 08:08:13;;;;;;;;;;;;;;;0.92;100.00;97910.56;5118530;28;19931;-80
2021/01/23 08:10:40;;;;;;;;;;;;;;;0.90;100.00;97912.91;5117100;28;19925;-80
2021/01/23 08:13:07;;;;;;;;;;;;;;;0.91;100.00;97900.72;5118514;28;19931;-80
2021/01/23 08:15:37;;;;;;;;;;;;;;;0.88;100.00;97912.50;5118321;28;19924;-80
2021/01/23 08:18:16;;;;;;;;;;;;;;;0.87;100.00;97899.94;5117322;28;19924;-80
2021/01/23 08:20:43;;;;;;;;;;;;;;;0.86;100.00;97903.88;5100099;28;19927;-80
2021/01/23 08:23:10;;;;;;;;;;;;;;;0.94;100.00;97913.69;5118028;28;19924;-80
2021/01/23 08:25:38;;;;;;;;;;;;;;;0.94;100.00;97915.69;5119596;28;19992;-80
2021/01/23 08:28:05;;;;;;;;;;;;;;;0.98;100.00;97921.97;5119031;27;19957;-80
2021/01/23 08:30:32;;;;;;;;;;;;;;;1.06;100.00;97938.09;5103787;28;19924;-80
2021/01/23 08:33:01;;;;;;;;;;;;;;;1.09;100.00;97942.81;5096352;28;19924;-80
2021/01/23 08:35:27;;;;;;;;;;;;;;;1.11;100.00;97942.44;5109478;28;19924;-80
2021/01/23 08:37:54;;;;;;;;;;;;;;;0.99;100.00;97943.59;5116639;28;19931;-80
2021/01/23 08:40:21;;;;;;;;;;;;;;;0.88;100.00;97934.50;5117719;28;19931;-80
2021/01/23 08:42:48;;;;;;;;;;;;;;;0.90;100.00;97936.88;5118107;28;19930;-80
2021/01/23 08:45:16;;;;;;;;;;;;;;;0.95;100.00;97945.53;5117584;28;19928;-81
2021/01/23 08:47:42;;;;;;;;;;;;;;;1.08;100.00;97952.25;5119508;28;19931;-81
2021/01/23 08:50:09;;;;;;;;;;;;;;;1.06;100.00;97962.84;5082752;28;20014;-81
2021/01/23 08:52:36;;;;;;;;;;;;;;;1.09;100.00;97973.09;5118025;28;19931;-84
2021/01/23 08:55:03;;;;;;;;;;;;;;;1.12;100.00;97983.31;5116713;28;20020;-80
2021/01/23 08:57:30;;;;;;;;;;;;;;;1.13;100.00;97995.91;5116135;28;19930;-76
2021/01/23 08:59:56;;;;;;;;;;;;;;;1.18;100.00;98003.00;5117068;28;20015;-79
2021/01/23 09:02:23;;;;;;;;;;;;;;;1.29;100.00;98010.13;5116212;28;19931;-79
2021/01/23 09:04:50;;;;;;;;;;;;;;;1.27;100.00;98017.97;5114479;28;19924;-78
2021/01/23 09:07:17;;;;;;;;;;;;;;;1.16;100.00;98006.16;5114534;28;19931;-78
2021/01/23 09:09:45;;;;;;;;;;;;;;;0.99;100.00;98006.84;5114561;28;19923;-78
2021/01/23 09:12:12;;;;;;;;;;;;;;;0.92;100.00;97995.81;5113423;28;19924;-78
2021/01/23 09:14:38;;;;;;;;;;;;;;;0.84;100.00;97994.22;5112970;28;19965;-78
2021/01/23 09:17:06;;;;;;;;;;;;;;;0.77;100.00;97988.69;5114468;28;20336;-78
2021/01/23 09:19:32;;;;;;;;;;;;;;;0.75;100.00;97998.47;5116270;28;19928;-78
2021/01/23 09:21:59;;;;;;;;;;;;;;;0.67;100.00;98005.88;5116148;28;19946;-78
2021/01/23 09:24:25;;;;;;;;;;;;;;;0.62;100.00;98030.97;5116083;28;20330;-77
2021/01/23 09:26:52;;;;;;;;;;;;;;;0.67;100.00;98058.13;5116167;28;19924;-77
2021/01/23 09:29:21;;;;;;;;;;;;;;;0.71;100.00;98089.16;5114824;28;20015;-78
2021/01/23 09:31:50;;;;;;;;;;;;;;;0.73;100.00;98125.31;5116044;28;19923;-78
2021/01/23 09:34:17;;;;;;;;;;;;;;;0.75;100.00;98145.00;5114829;28;20014;-78
2021/01/23 09:36:44;;;;;;;;;;;;;;;0.72;100.00;98169.69;5114598;28;19982;-77
2021/01/23 09:39:10;;;;;;;;;;;;;;;0.71;100.00;98190.13;5115810;28;19931;-78
2021/01/23 09:41:37;;;;;;;;;;;;;;;0.78;100.00;98210.22;5115875;28;19923;-78
2021/01/23 09:44:03;;;;;;;;;;;;;;;0.84;100.00;98219.69;5114462;28;20404;-77
2021/01/23 09:46:30;;;;;;;;;;;;;;;0.89;100.00;98235.88;5115620;28;19974;-78
2021/01/23 09:48:57;;;;;;;;;;;;;;;0.95;100.00;98264.59;5115685;28;20298;-78
2021/01/23 09:51:23;;;;;;;;;;;;;;;0.94;100.00;98286.97;5115635;28;20026;-78
2021/01/23 09:53:50;;;;;;;;;;;;;;;0.91;100.00;98280.25;5115639;28;20297;-78
2021/01/23 09:56:16;;;;;;;;;;;;;;;0.79;100.00;98302.53;5115639;28;19998;-78
2021/01/23 09:58:43;;;;;;;;;;;;;;;0.74;100.00;98324.91;5114039;28;20289;-78
2021/01/23 10:01:10;;;;;;;;;;;;;;;0.87;100.00;98348.19;5115573;28;19931;-78
2021/01/23 10:03:37;;;;;;;;;;;;;;;0.87;100.00;98367.47;5113966;28;19931;-79
2021/01/23 10:06:03;;;;;;;;;;;;;;;0.91;100.00;98376.53;5114974;28;20509;-78
2021/01/23 10:08:30;;;;;;;;;;;;;;;0.91;100.00;98390.28;5114586;28;20281;-79
2021/01/23 10:10:57;;;;;;;;;;;;;;;0.96;100.00;98406.44;5114876;28;20386;-79
2021/01/23 10:13:23;;;;;;;;;;;;;;;0.98;100.00;98406.88;5115785;28;20028;-78
2021/01/23 10:15:50;;;;;;;;;;;;;;;0.95;100.00;98407.63;5115889;28;20381;-78
2021/01/23 10:18:16;;;;;;;;;;;;;;;1.00;100.00;98399.03;5115937;28;19928;-78
2021/01/23 10:20:43;;;;;;;;;;;;;;;1.05;100.00;98384.94;5114333;28;20391;-78
2021/01/23 10:23:10;;;;;;;;;;;;;;;1.08;100.00;98361.38;5115575;28;20382;-78
2021/01/23 10:25:36;;;;;;;;;;;;;;;0.98;100.00;98321.59;5115085;28;19924;-78
2021/01/23 10:28:06;;;;;;;;;;;;;;;1.04;100.00;98291.78;5115321;28;19923;-75
2021/01/23 10:30:32;;;;;;;;;;;;;;;1.14;100.00;98286.38;5115582;28;20371;-79
2021/01/23 10:32:59;;;;;;;;;;;;;;;1.21;100.00;98260.88;5115536;28;19931;-78
2021/01/23 10:35:25;;;;;;;;;;;;;;;1.21;100.00;98227.88;5115697;28;19927;-78
2021/01/23 10:37:52;;;;;;;;;;;;;;;1.05;100.00;98184.13;5114259;28;20382;-79
2021/01/23 10:40:18;;;;;;;;;;;;;;;0.91;100.00;98117.22;5115505;28;19923;-80
2021/01/23 10:42:45;;;;;;;;;;;;;;;0.78;100.00;98070.00;5115175;28;19927;-79
2021/01/23 10:45:11;;;;;;;;;;;;;;;0.69;100.00;98016.50;5115532;28;19923;-77
2021/01/23 10:47:38;;;;;;;;;;;;;;;0.64;100.00;97973.66;5115332;28;19950;-78
2021/01/23 10:50:05;;;;;;;;;;;;;;;0.66;100.00;97916.34;5115063;28;19927;-76
2021/01/23 10:52:33;;;;;;;;;;;;;;;0.66;100.00;97877.88;5105915;28;19928;-76
2021/01/23 10:55:01;;;;;;;;;;;;;;;0.70;100.00;97867.66;5108178;28;19930;-77
2021/01/23 10:57:28;;;;;;;;;;;;;;;0.79;100.00;97854.34;5109625;28;19924;-76
2021/01/23 10:59:55;;;;;;;;;;;;;;;0.86;100.00;97831.56;5111330;28;19958;-78
2021/01/23 11:02:22;;;;;;;;;;;;;;;0.90;100.00;97808.41;5110900;28;19924;-75
2021/01/23 11:04:49;;;;;;;;;;;;;;;0.95;100.00;97797.03;5110391;28;19949;-75
2021/01/23 11:07:15;;;;;;;;;;;;;;;0.95;100.00;97776.97;5109313;28;19928;-79
2021/01/23 11:09:42;;;;;;;;;;;;;;;0.89;100.00;97757.34;5110027;28;19946;-80
2021/01/23 11:12:10;;;;;;;;;;;;;;;0.91;100.00;97735.72;5111393;28;19924;-82
2021/01/23 11:14:37;;;;;;;;;;;;;;;1.04;100.00;97734.16;5110730;28;19923;-83
2021/01/23 11:17:04;;;;;;;;;;;;;;;1.09;100.00;97722.75;5110820;28;19949;-80
2021/01/23 11:19:31;;;;;;;;;;;;;;;1.19;100.00;97724.75;5110893;28;19949;-81
2021/01/23 11:21:57;;;;;;;;;;;;;;;1.24;100.00;97724.31;5093289;28;19934;-81
2021/01/23 11:24:24;;;;;;;;;;;;;;;1.35;100.00;97722.34;5110478;28;19942;-80
2021/01/23 11:26:50;;;;;;;;;;;;;;;1.39;100.00;97727.88;5112439;28;19924;-83
2021/01/23 11:29:17;;;;;;;;;;;;;;;1.55;100.00;97723.50;5093446;28;19924;-81
2021/01/23 11:31:44;;;;;;;;;;;;;;;1.60;100.00;97716.81;5111001;28;19924;-81
2021/01/23 11:34:10;;;;;;;;;;;;;;;1.65;100.00;97714.44;5093781;28;19931;-82
2021/01/23 11:36:37;;;;;;;;;;;;;;;1.60;100.00;97706.59;5110561;28;19931;-81
2021/01/23 11:39:05;;;;;;;;;;;;;;;1.64;100.00;97701.06;5110629;28;19924;-82
2021/01/23 11:41:31;;;;;;;;;;;;;;;1.71;100.00;97696.31;5110647;28;19965;-83
2021/01/23 11:43:58;;;;;;;;;;;;;;;1.58;100.00;97678.66;5096519;28;19959;-83
2021/01/23 11:46:24;;;;;;;;;;;;;;;1.59;100.00;97671.97;5113558;28;20008;-79
2021/01/23 11:48:51;;;;;;;;;;;;;;;1.70;100.00;97672.72;5113555;28;19982;-83
2021/01/23 11:51:17;;;;;;;;;;;;;;;1.71;100.00;97662.50;5096596;28;20018;-84
2021/01/23 11:53:44;;;;;;;;;;;;;;;1.70;100.00;97656.22;5096650;28;19923;-86
2021/01/23 11:56:11;;;;;;;;;;;;;;;1.64;100.00;97663.31;5080760;28;19923;-84
2021/01/23 11:58:37;;;;;;;;;;;;;;;1.65;100.00;97662.13;5115735;28;19924;-85
2021/01/23 12:01:04;;;;;;;;;;;;;;;1.54;100.00;97664.13;5080570;28;19974;-83
2021/01/23 12:03:30;;;;;;;;;;;;;;;1.52;100.00;97660.19;5097284;28;19924;-84
2021/01/23 12:05:58;;;;;;;;;;;;;;;1.52;100.00;97661.00;5097472;28;19930;-84
2021/01/23 12:08:24;;;;;;;;;;;;;;;1.60;100.00;97668.06;5114264;28;19924;-85
2021/01/23 12:10:51;;;;;;;;;;;;;;;1.65;100.00;97675.88;5096653;28;19972;-85
2021/01/23 12:13:18;;;;;;;;;;;;;;;1.55;100.00;97678.66;5113233;28;19974;-86
2021/01/23 12:15:44;;;;;;;;;;;;;;;1.56;100.00;97681.03;5113518;28;19924;-83
2021/01/23 12:18:11;;;;;;;;;;;;;;;1.62;100.00;97679.44;5079773;28;19923;-83
2021/01/23 12:20:37;;;;;;;;;;;;;;;1.54;100.00;97697.16;5113032;28;20026;-82
2021/01/23 12:23:04;;;;;;;;;;;;;;;1.41;100.00;97681.44;5112758;28;19923;-80
2021/01/23 12:25:31;;;;;;;;;;;;;;;1.27;100.00;97670.50;5114182;28;19930;-82
2021/01/23 12:27:58;;;;;;;;;;;;;;;1.11;100.00;97659.88;5113552;28;19923;-81
2021/01/23 12:30:24;;;;;;;;;;;;;;;1.07;100.00;97655.56;5112962;28;19931;-81
2021/01/23 12:32:51;;;;;;;;;;;;;;;1.07;100.00;97650.88;5112794;28;20472;-82
2021/01/23 12:35:17;;;;;;;;;;;;;;;1.23;100.00;97653.97;5096611;28;19931;-80
2021/01/23 12:37:45;;;;;;;;;;;;;;;1.33;100.00;97657.91;5114085;28;20028;-80
2021/01/23 12:40:12;;;;;;;;;;;;;;;1.48;100.00;97659.44;5114161;28;19935;-82
2021/01/23 12:42:40;;;;;;;;;;;;;;;1.44;100.00;97670.44;5112895;28;20282;-85
2021/01/23 12:45:07;;;;;;;;;;;;;;;1.57;100.00;97688.13;5113001;28;19924;-80
2021/01/23 12:47:34;;;;;;;;;;;;;;;1.63;100.00;97700.28;5102344;28;20050;-79
2021/01/23 12:50:01;;;;;;;;;;;;;;;1.75;100.00;97702.63;5113082;28;19930;-78
2021/01/23 12:52:33;;;;;;;;;;;;;;;1.39;100.00;97689.34;5112168;28;19927;-78
2021/01/23 12:55:38;;;;;;;;;;;;;;;1.31;100.00;97677.56;5113775;28;19923;-77